D/T METAR WX W/SPE G/SPE TEMP DEWP FEEL
31/01/23 13:20 EGJB 311320Z 27012KT 9999 VCSH FEW007 SCT018 BKN030 11/09 Q1029 VCSH 13.8mph 11°C 9°C 11.8°C
31/01/23 12:50 EGJB 311250Z 27015KT 9999 FEW007 BKN035 11/09 Q1029 17.3mph 11°C 9°C 11.8°C
31/01/23 07:50 EGJB 310750Z 27010KT 9999 BKN015 08/05 Q1029 11.5mph 8°C 5°C 7.3°C
31/01/23 07:20 EGJB 310720Z 27009KT 9999 FEW018 07/05 Q1029 10.4mph 7°C 5°C 6.3°C
31/01/23 04:20 EGJB 310420Z 29010KT 9999 BKN028 08/03 Q1029 11.5mph 8°C 3°C 6.7°C
30/01/23 12:50 EGJB 301250Z 33011KT 9999 FEW028 09/03 Q1028 12.7mph 9°C 3°C 7.7°C
30/01/23 12:20 EGJB 301220Z 33008KT 300V010 9999 FEW028 09/05 Q1028 9.2mph 9°C 5°C 8.3°C
30/01/23 10:50 EGJB 301050Z 34009KT 9999 FEW028 09/06 Q1028 10.4mph 9°C 6°C 8.6°C
30/01/23 10:20 EGJB 301020Z 35010KT 9999 FEW009 SCT028 10/06 Q1028 11.5mph 10°C 6°C 9.6°C
30/01/23 07:50 EGJB 300750Z 31007KT 4000 -RADZ BR SCT001 BKN002 09/09 Q1027 -RA -DZ BR 8.1mph 9°C 9°C 9.8°C
09/01/23 06:20 EGJB 090620Z 29019G34KT 9999 VCSH FEW014CB 09/03 Q1001 VCSH 21.9mph 39.1mph 9°C 3°C 7.7°C
09/01/23 05:50 EGJB 090550Z 29019G29KT 9999 VCSH FEW014CB SCT026 09/03 Q1001 VCSH 21.9mph 33.4mph 9°C 3°C 7.7°C
09/01/23 05:20 EGJB 090520Z 29018KT 9999 VCSH FEW014CB SCT025 08/03 Q1001 VCSH 20.7mph 8°C 3°C 6.7°C
09/01/23 04:50 EGJB 090450Z 28024G35KT 9999 VCSH FEW014CB SCT022 08/03 Q1000 VCSH 27.6mph 40.3mph 8°C 3°C 6.7°C
09/01/23 04:20 EGJB 090420Z 28021G33KT 9999 VCSH FEW014CB SCT025 08/03 Q1000 VCSH 24.2mph 38.0mph 8°C 3°C 6.7°C
09/01/23 03:50 EGJB 090350Z 29024KT 9999 VCSH FEW014CB SCT024 08/03 Q0999 VCSH 27.6mph 8°C 3°C 6.7°C
09/01/23 02:50 EGJB 090250Z 29021KT 9999 6000SE -SHRA BKN014CB 07/05 Q0998 RESHRA -SHRA 24.2mph 7°C 5°C 6.3°C
09/01/23 00:50 EGJB 090050Z 27025G35KT 9999 -SHRA FEW013CB SCT022 08/04 Q0997 RESHRA -SHRA 28.8mph 40.3mph 8°C 4°C 7.0°C
08/01/23 23:50 EGJB 082350Z 27023KT 9999 VCSH FEW015CB SCT020 09/06 Q0996 VCSH 26.5mph 9°C 6°C 8.6°C
08/01/23 22:50 EGJB 082250Z 27022G34KT 9999 -SHRA FEW016CB SCT020 09/05 Q0995 RESHRA -SHRA 25.3mph 39.1mph 9°C 5°C 8.3°C
08/01/23 21:50 EGJB 082150Z 27022KT 9999 VCSH FEW012CB BKN025 09/06 Q0994 VCSH 25.3mph 9°C 6°C 8.6°C
08/01/23 20:20 EGJB 082020Z 27024KT 9999 VCSH FEW010 FEW014CB SCT016 09/07 Q0993 RESHRA RESHGS VCSH SHGS 27.6mph 9°C 7°C 9.0°C
08/01/23 19:20 EGJB 081920Z 23024G34KT 9999 VCSH FEW010 FEW015CB SCT020 08/06 Q0993 VCSH 27.6mph 39.1mph 8°C 6°C 7.6°C
08/01/23 18:50 EGJB 081850Z 23021G33KT 9999 8000W -SHRA SCT022 BKN044 09/05 Q0993 -SHRA 24.2mph 38.0mph 9°C 5°C 8.3°C
08/01/23 18:20 EGJB 081820Z 24021G31KT 9999 FEW028 BKN046 08/04 Q0993 24.2mph 35.7mph 8°C 4°C 7.0°C
08/01/23 17:50 EGJB 081750Z 24019KT 9999 SCT028 BKN042 09/04 Q0993 21.9mph 9°C 4°C 8.0°C
08/01/23 17:20 EGJB 081720Z 25019KT 9999 FEW025 09/03 Q0993 21.9mph 9°C 3°C 7.7°C
08/01/23 16:50 EGJB 081650Z 26019KT 9999 FEW022 09/04 Q0994 21.9mph 9°C 4°C 8.0°C
08/01/23 16:20 EGJB 081620Z 25016G26KT 9999 VCSH FEW016CB 08/05 Q0993 VCSH 18.4mph 29.9mph 8°C 5°C 7.3°C
08/01/23 15:50 EGJB 081550Z 26018KT 9999 VCSH SCT018 08/03 Q0993 VCSH 20.7mph 8°C 3°C 6.7°C
08/01/23 15:20 EGJB 081520Z 26018KT 9999 FEW010 SCT017 09/04 Q0993 20.7mph 9°C 4°C 8.0°C
08/01/23 14:20 EGJB 081420Z 23019KT 9999 VCSH FEW009 SCT024 08/05 Q0993 VCSH 21.9mph 8°C 5°C 7.3°C
08/01/23 13:50 EGJB 081350Z 22017KT 9999 VCSH FEW008 FEW014CB SCT036 07/06 Q0993 VCSH 19.6mph 7°C 6°C 6.6°C
08/01/23 13:20 EGJB 081320Z 23021KT 9999 -SHRA FEW008 FEW014CB SCT017 BKN034 07/06 Q0993 RESHRA -SHRA 24.2mph 7°C 6°C 6.6°C
08/01/23 12:50 EGJB 081250Z 23026G41KT 8000 -SHRA FEW008 FEW014CB BKN018 07/06 Q0994 -SHRA 29.9mph 47.2mph 7°C 6°C 6.6°C
08/01/23 12:20 EGJB 081220Z 21023KT 9999 VCSH FEW012 FEW015CB 09/06 Q0993 VCSH 26.5mph 9°C 6°C 8.6°C
08/01/23 11:50 EGJB 081150Z 21020KT 9999 VCSH FEW015CB BKN031 10/06 Q0994 VCSH 23.0mph 10°C 6°C 9.6°C
08/01/23 11:20 EGJB 081120Z 21023G33KT 9999 VCSH FEW015CB SCT022 10/06 Q0994 VCSH 26.5mph 38.0mph 10°C 6°C 9.6°C
08/01/23 10:50 EGJB 081050Z 20021G32KT 9999 VCSH FEW015CB SCT018 10/06 Q0994 VCSH 24.2mph 36.8mph 10°C 6°C 9.6°C
08/01/23 10:20 EGJB 081020Z 20023KT 9999 VCSH FEW015CB 10/07 Q0995 VCSH 26.5mph 10°C 7°C 10.0°C
08/01/23 09:50 EGJB 080950Z 20021KT 9999 VCSH FEW015CB 09/06 Q0995 VCSH 24.2mph 9°C 6°C 8.6°C
08/01/23 09:20 EGJB 080920Z 20019KT 9999 -SHRA BKN014CB 09/07 Q0995 -SHRA 21.9mph 9°C 7°C 9.0°C
08/01/23 08:50 EGJB 080850Z 20019KT 9999 FEW014CB 09/06 Q0996 21.9mph 9°C 6°C 8.6°C
08/01/23 08:20 EGJB 080820Z 21020KT 9999 FEW014CB 09/06 Q0996 23.0mph 9°C 6°C 8.6°C
08/01/23 07:50 EGJB 080750Z 21021KT 9999 FEW013 09/06 Q0996 24.2mph 9°C 6°C 8.6°C
08/01/23 07:20 EGJB 080720Z 21018KT 9999 FEW013 09/05 Q0997 20.7mph 9°C 5°C 8.3°C
08/01/23 06:50 EGJB 080650Z 21018G28KT 9999 FEW014 09/06 Q0997 20.7mph 32.2mph 9°C 6°C 8.6°C
08/01/23 06:20 EGJB 080620Z 21019KT 9999 VCSH FEW014CB 09/06 Q0997 VCSH 21.9mph 9°C 6°C 8.6°C
08/01/23 05:50 EGJB 080550Z 21018KT 9999 FEW014CB 08/06 Q0997 20.7mph 8°C 6°C 7.6°C
08/01/23 05:20 EGJB 080520Z 21019KT 9999 FEW014CB 08/06 Q0998 21.9mph 8°C 6°C 7.6°C
08/01/23 04:50 EGJB 080450Z 21017KT 9999 FEW008 FEW014CB 08/06 Q0998 19.6mph 8°C 6°C 7.6°C
08/01/23 04:20 EGJB 080420Z 21018KT 9999 FEW008 FEW014CB 08/06 Q0998 20.7mph 8°C 6°C 7.6°C
08/01/23 03:50 EGJB 080350Z 22018KT 9999 VCSH FEW015CB 08/06 Q0998 RESHRA VCSH 20.7mph 8°C 6°C 7.6°C
08/01/23 02:50 EGJB 080250Z 22018KT 9999 VCSH FEW015CB 09/05 Q0999 VCSH 20.7mph 9°C 5°C 8.3°C
08/01/23 01:50 EGJB 080150Z 22020KT 9999 VCSH FEW015CB 09/06 Q0999 VCSH 23.0mph 9°C 6°C 8.6°C
07/01/23 23:50 EGJB 072350Z 21018KT 9999 FEW015CB 09/05 Q1000 20.7mph 9°C 5°C 8.3°C
07/01/23 22:50 EGJB 072250Z 21018KT 9999 FEW015CB 09/05 Q1000 20.7mph 9°C 5°C 8.3°C
07/01/23 21:50 EGJB 072150Z 21016KT 9999 FEW015CB 09/05 Q1000 18.4mph 9°C 5°C 8.3°C
07/01/23 20:50 EGJB 072050Z 22018KT 9999 VCSH FEW013CB 09/05 Q1001 VCSH 20.7mph 9°C 5°C 8.3°C
07/01/23 20:20 EGJB 072020Z 22019KT 9999 VCSH FEW013CB 09/05 Q1001 VCSH 21.9mph 9°C 5°C 8.3°C
07/01/23 19:50 EGJB 071950Z 22019KT 9999 FEW013CB 09/06 Q1001 21.9mph 9°C 6°C 8.6°C
07/01/23 19:20 EGJB 071920Z 23020G32KT 9999 -SHRA SCT016CB 09/06 Q1001 -SHRA 23.0mph 36.8mph 9°C 6°C 8.6°C
07/01/23 18:50 EGJB 071850Z 23022KT 9999 FEW014 09/05 Q1000 25.3mph 9°C 5°C 8.3°C
07/01/23 18:20 EGJB 071820Z 23022KT 9999 VCSH BKN018 09/06 Q1000 VCSH 25.3mph 9°C 6°C 8.6°C
07/01/23 17:50 EGJB 071750Z 22019KT 9999 FEW012CB 09/06 Q1000 21.9mph 9°C 6°C 8.6°C
07/01/23 17:20 EGJB 071720Z 23021KT 9999 FEW012CB 09/06 Q1000 24.2mph 9°C 6°C 8.6°C
07/01/23 16:50 EGJB 071650Z 24025KT 9999 FEW012CB 09/06 Q1000 28.8mph 9°C 6°C 8.6°C
07/01/23 16:20 EGJB 071620Z 24025KT 9999 VCSH BKN012CB 09/07 Q1000 RESHGS RESHRA RERA VCSH SHRA RA 28.8mph 9°C 7°C 9.0°C
07/01/23 15:50 EGJB 071550Z 23025KT 9999 VCSH FEW010 FEW014CB 10/07 Q0999 VCSH 28.8mph 10°C 7°C 10.0°C
07/01/23 15:20 EGJB 071520Z 22022G33KT 9999 FEW010 FEW014CB 11/07 Q0999 25.3mph 38.0mph 11°C 7°C 11.0°C
07/01/23 14:50 EGJB 071450Z 23019KT 9999 VCSH FEW007 SCT014CB 09/08 Q0998 RESHRA VCSH 21.9mph 9°C 8°C 9.4°C
07/01/23 14:20 EGJB 071420Z 22019KT 9999 VCSH FEW017CB SCT032 12/08 Q0998 VCSH 21.9mph 12°C 8°C 12.4°C
07/01/23 13:50 EGJB 071350Z 20016KT 9999 VCSH FEW015CB BKN027 12/08 Q0998 VCSH 18.4mph 12°C 8°C 12.4°C
07/01/23 12:50 EGJB 071250Z 22019KT 9999 FEW015CB 13/08 Q0999 21.9mph 13°C 8°C 13.4°C
07/01/23 12:20 EGJB 071220Z 20019KT 9999 VCSH FEW018 12/09 Q0999 VCSH 21.9mph 12°C 9°C 12.8°C
07/01/23 11:50 EGJB 071150Z 20017KT 9999 VCSH FEW014 13/10 Q0999 VCSH 19.6mph 13°C 10°C 14.3°C
07/01/23 11:20 EGJB 071120Z 20018KT 9999 FEW012 12/10 Q1000 20.7mph 12°C 10°C 13.3°C
07/01/23 10:50 EGJB 071050Z 19018KT 9999 VCSH FEW005 BKN016 12/11 Q1000 VCSH 20.7mph 12°C 11°C 13.8°C
07/01/23 10:20 EGJB 071020Z 18019KT 9999 VCSH SCT005 BKN016 11/10 Q1000 VCSH 21.9mph 11°C 10°C 12.3°C
07/01/23 09:50 EGJB 070950Z 18019KT 9999 FEW005 SCT009 BKN015 11/10 Q1000 21.9mph 11°C 10°C 12.3°C
07/01/23 09:20 EGJB 070920Z 18017KT 9999 VCSH FEW005 SCT008 BKN014 11/10 Q1000 VCSH 19.6mph 11°C 10°C 12.3°C
07/01/23 08:50 EGJB 070850Z 18021G33KT 9999 -RA FEW005 SCT008 BKN040 11/10 Q1000 -RA 24.2mph 38.0mph 11°C 10°C 12.3°C
07/01/23 08:20 EGJB 070820Z 18023KT 4500 -DZRA BR FEW003 BKN005 BKN007 11/10 Q1001 RERA -DZ -RA BR 26.5mph 11°C 10°C 12.3°C
07/01/23 07:50 EGJB 070750Z 18020KT 8000 3800W RA SCT008 SCT010 BKN015 11/10 Q1001 RA 23.0mph 11°C 10°C 12.3°C
07/01/23 07:20 EGJB 070720Z 18024KT 9000 -RA SCT009 SCT016 BKN034 11/10 Q1001 -RA 27.6mph 11°C 10°C 12.3°C
07/01/23 06:50 EGJB 070650Z 18023G33KT 9999 -RA FEW009 BKN020 11/10 Q1002 -RA 26.5mph 38.0mph 11°C 10°C 12.3°C
07/01/23 06:20 EGJB 070620Z 18025KT 9999 -RA FEW010 BKN018 11/10 Q1002 -RA 28.8mph 11°C 10°C 12.3°C
07/01/23 05:50 EGJB 070550Z 18026G37KT 9999 -RA FEW010 BKN020 11/10 Q1002 -RA 29.9mph 42.6mph 11°C 10°C 12.3°C
07/01/23 05:20 EGJB 070520Z 18026G38KT 9999 -RA FEW010 SCT020 BKN028 11/09 Q1003 -RA 29.9mph 43.7mph 11°C 9°C 11.8°C
07/01/23 04:50 EGJB 070450Z 18025G35KT 9999 -RA FEW020 BKN044 11/09 Q1004 -RA 28.8mph 40.3mph 11°C 9°C 11.8°C
07/01/23 04:20 EGJB 070420Z 18026KT 9999 -RA FEW020 BKN044 12/09 Q1004 -RA 29.9mph 12°C 9°C 12.8°C
07/01/23 03:50 EGJB 070350Z 18023KT 9999 FEW020 BKN044 12/09 Q1005 26.5mph 12°C 9°C 12.8°C
07/01/23 02:50 EGJB 070250Z 18021KT 9999 FEW020 BKN048 12/10 Q1006 24.2mph 12°C 10°C 13.3°C
07/01/23 01:50 EGJB 070150Z 17018KT 9999 FEW020 BKN048 12/10 Q1008 20.7mph 12°C 10°C 13.3°C
07/01/23 00:50 EGJB 070050Z 18022KT 9999 SCT020 BKN034 12/10 Q1009 25.3mph 12°C 10°C 13.3°C
06/01/23 23:50 EGJB 062350Z 18018KT 9999 BKN020 12/10 Q1010 20.7mph 12°C 10°C 13.3°C